sensor_id;sensor_type;location;lat;lon;timestamp;pressure;altitude;pressure_sealevel;temperature;humidity
18987;BME280;9627;59.236;18.142;2023-02-28T00:00:33;102112.13;;;-0.62;100.00
18987;BME280;9627;59.236;18.142;2023-02-28T00:03:00;102113.97;;;-0.64;100.00
18987;BME280;9627;59.236;18.142;2023-02-28T00:05:28;102115.00;;;-0.67;100.00
18987;BME280;9627;59.236;18.142;2023-02-28T00:07:57;102112.53;;;-0.70;100.00
18987;BME280;9627;59.236;18.142;2023-02-28T00:10:25;102115.91;;;-0.68;100.00
18987;BME280;9627;59.236;18.142;2023-02-28T00:12:52;102114.13;;;-0.67;100.00
18987;BME280;9627;59.236;18.142;2023-02-28T00:15:22;102116.97;;;-0.72;100.00
18987;BME280;9627;59.236;18.142;2023-02-28T00:17:48;102119.50;;;-0.70;100.00
18987;BME280;9627;59.236;18.142;2023-02-28T00:20:15;102121.19;;;-0.69;100.00
18987;BME280;9627;59.236;18.142;2023-02-28T00:22:43;102117.72;;;-0.70;100.00
18987;BME280;9627;59.236;18.142;2023-02-28T00:25:13;102115.13;;;-0.70;100.00
18987;BME280;9627;59.236;18.142;2023-02-28T00:27:41;102126.41;;;-0.69;100.00
18987;BME280;9627;59.236;18.142;2023-02-28T00:30:09;102115.00;;;-0.67;100.00
18987;BME280;9627;59.236;18.142;2023-02-28T00:32:36;102123.63;;;-0.66;100.00
18987;BME280;9627;59.236;18.142;2023-02-28T00:35:03;102126.19;;;-0.65;100.00
18987;BME280;9627;59.236;18.142;2023-02-28T00:37:31;102121.72;;;-0.63;100.00
18987;BME280;9627;59.236;18.142;2023-02-28T00:39:58;102121.72;;;-0.63;100.00
18987;BME280;9627;59.236;18.142;2023-02-28T00:42:27;102120.13;;;-0.65;100.00
18987;BME280;9627;59.236;18.142;2023-02-28T00:44:54;102115.59;;;-0.62;100.00
18987;BME280;9627;59.236;18.142;2023-02-28T00:47:21;102112.13;;;-0.62;100.00
18987;BME280;9627;59.236;18.142;2023-02-28T00:49:48;102113.16;;;-0.65;100.00
18987;BME280;9627;59.236;18.142;2023-02-28T00:52:15;102112.13;;;-0.62;100.00
18987;BME280;9627;59.236;18.142;2023-02-28T00:54:42;102109.50;;;-0.62;100.00
18987;BME280;9627;59.236;18.142;2023-02-28T00:57:09;102105.75;;;-0.57;100.00
18987;BME280;9627;59.236;18.142;2023-02-28T00:59:38;102113.81;;;-0.61;100.00
18987;BME280;9627;59.236;18.142;2023-02-28T01:02:05;102110.53;;;-0.65;100.00
18987;BME280;9627;59.236;18.142;2023-02-28T01:04:32;102115.03;;;-0.68;100.00
18987;BME280;9627;59.236;18.142;2023-02-28T01:06:59;102116.75;;;-0.67;100.00
18987;BME280;9627;59.236;18.142;2023-02-28T01:09:26;102118.69;;;-0.71;100.00
18987;BME280;9627;59.236;18.142;2023-02-28T01:11:53;102115.97;;;-0.69;100.00
18987;BME280;9627;59.236;18.142;2023-02-28T01:14:19;102102.63;;;-0.63;100.00
18987;BME280;9627;59.236;18.142;2023-02-28T01:16:48;102097.09;;;-0.57;100.00
18987;BME280;9627;59.236;18.142;2023-02-28T01:19:16;102097.50;;;-0.65;100.00
18987;BME280;9627;59.236;18.142;2023-02-28T01:21:43;102102.53;;;-0.62;100.00
18987;BME280;9627;59.236;18.142;2023-02-28T01:24:10;102099.16;;;-0.64;100.00
18987;BME280;9627;59.236;18.142;2023-02-28T01:26:37;102092.28;;;-0.65;100.00
18987;BME280;9627;59.236;18.142;2023-02-28T01:29:04;102097.56;;;-0.66;100.00
18987;BME280;9627;59.236;18.142;2023-02-28T01:31:31;102088.47;;;-0.75;100.00
18987;BME280;9627;59.236;18.142;2023-02-28T01:34:00;102086.69;;;-0.74;100.00
18987;BME280;9627;59.236;18.142;2023-02-28T01:36:27;102099.09;;;-0.79;100.00
18987;BME280;9627;59.236;18.142;2023-02-28T01:38:54;102107.63;;;-0.76;100.00
18987;BME280;9627;59.236;18.142;2023-02-28T01:41:21;102100.47;;;-0.72;100.00
18987;BME280;9627;59.236;18.142;2023-02-28T01:43:59;102091.97;;;-0.76;100.00
18987;BME280;9627;59.236;18.142;2023-02-28T01:46:29;102094.44;;;-0.73;100.00
18987;BME280;9627;59.236;18.142;2023-02-28T01:49:00;102091.81;;;-0.73;100.00
18987;BME280;9627;59.236;18.142;2023-02-28T01:51:29;102099.16;;;-0.64;100.00
18987;BME280;9627;59.236;18.142;2023-02-28T01:54:01;102099.16;;;-0.64;100.00
18987;BME280;9627;59.236;18.142;2023-02-28T01:56:30;102098.94;;;-0.59;100.00
18987;BME280;9627;59.236;18.142;2023-02-28T01:58:58;102099.94;;;-0.62;100.00
18987;BME280;9627;59.236;18.142;2023-02-28T02:01:26;102097.56;;;-0.66;100.00
18987;BME280;9627;59.236;18.142;2023-02-28T02:03:54;102104.00;;;-0.73;100.00
18987;BME280;9627;59.236;18.142;2023-02-28T02:06:23;102096.50;;;-0.79;100.00
18987;BME280;9627;59.236;18.142;2023-02-28T02:08:51;102105.78;;;-0.91;100.00
18987;BME280;9627;59.236;18.142;2023-02-28T02:11:20;102092.06;;;-0.95;100.00
18987;BME280;9627;59.236;18.142;2023-02-28T02:16:49;102091.47;;;-0.82;100.00
18987;BME280;9627;59.236;18.142;2023-02-28T02:24:52;102090.31;;;-0.94;100.00
18987;BME280;9627;59.236;18.142;2023-02-28T02:27:26;102102.41;;;-0.93;100.00
18987;BME280;9627;59.236;18.142;2023-02-28T02:30:07;102100.88;;;-0.97;100.00
18987;BME280;9627;59.236;18.142;2023-02-28T02:35:33;102098.53;;;-1.02;100.00
18987;BME280;9627;59.236;18.142;2023-02-28T02:38:04;102096.91;;;-1.04;100.00
18987;BME280;9627;59.236;18.142;2023-02-28T02:40:35;102098.44;;;-1.00;100.00
18987;BME280;9627;59.236;18.142;2023-02-28T02:43:05;102096.75;;;-1.01;100.00
18987;BME280;9627;59.236;18.142;2023-02-28T02:45:33;102096.59;;;-0.98;100.00
18987;BME280;9627;59.236;18.142;2023-02-28T02:48:03;102099.59;;;-1.06;100.00
18987;BME280;9627;59.236;18.142;2023-02-28T02:50:33;102100.97;;;-0.99;100.00
18987;BME280;9627;59.236;18.142;2023-02-28T02:53:02;102096.91;;;-1.04;100.00
18987;BME280;9627;59.236;18.142;2023-02-28T02:55:30;102096.91;;;-1.04;100.00
18987;BME280;9627;59.236;18.142;2023-02-28T02:57:59;102090.06;;;-1.07;100.00
18987;BME280;9627;59.236;18.142;2023-02-28T03:00:29;102094.69;;;-1.12;100.00
18987;BME280;9627;59.236;18.142;2023-02-28T03:02:58;102089.38;;;-1.10;100.00
18987;BME280;9627;59.236;18.142;2023-02-28T03:05:26;102097.13;;;-1.09;100.00
18987;BME280;9627;59.236;18.142;2023-02-28T03:07:55;102097.84;;;-1.05;100.00
18987;BME280;9627;59.236;18.142;2023-02-28T03:10:26;102092.28;;;-0.99;100.00
18987;BME280;9627;59.236;18.142;2023-02-28T03:12:56;102088.63;;;-0.95;100.00
18987;BME280;9627;59.236;18.142;2023-02-28T03:15:27;102088.63;;;-0.95;100.00
18987;BME280;9627;59.236;18.142;2023-02-28T03:18:01;102089.28;;;-0.92;100.00
18987;BME280;9627;59.236;18.142;2023-02-28T03:20:34;102091.16;;;-0.93;100.00
18987;BME280;9627;59.236;18.142;2023-02-28T03:23:07;102092.47;;;-1.02;100.00
18987;BME280;9627;59.236;18.142;2023-02-28T03:25:37;102085.72;;;-1.06;100.00
18987;BME280;9627;59.236;18.142;2023-02-28T03:28:09;102088.09;;;-1.02;100.00
18987;BME280;9627;59.236;18.142;2023-02-28T03:30:41;102085.03;;;-1.10;100.00
18987;BME280;9627;59.236;18.142;2023-02-28T03:33:10;102088.63;;;-1.12;100.00
18987;BME280;9627;59.236;18.142;2023-02-28T03:35:39;102082.63;;;-1.14;100.00
18987;BME280;9627;59.236;18.142;2023-02-28T03:38:12;102089.84;;;-1.19;100.00
18987;BME280;9627;59.236;18.142;2023-02-28T03:40:41;102086.19;;;-1.15;100.00
18987;BME280;9627;59.236;18.142;2023-02-28T03:43:10;102091.31;;;-1.14;100.00
18987;BME280;9627;59.236;18.142;2023-02-28T03:45:39;102090.72;;;-1.19;100.00
18987;BME280;9627;59.236;18.142;2023-02-28T03:48:08;102093.31;;;-1.19;100.00
18987;BME280;9627;59.236;18.142;2023-02-28T03:50:39;102089.56;;;-1.13;100.00
18987;BME280;9627;59.236;18.142;2023-02-28T03:53:08;102084.09;;;-1.09;100.00
18987;BME280;9627;59.236;18.142;2023-02-28T03:55:39;102077.13;;;-1.08;100.00
18987;BME280;9627;59.236;18.142;2023-02-28T03:58:11;102080.88;;;-0.97;100.00
18987;BME280;9627;59.236;18.142;2023-02-28T04:00:43;102083.56;;;-0.98;100.00
18987;BME280;9627;59.236;18.142;2023-02-28T04:03:11;102076.81;;;-1.02;100.00
18987;BME280;9627;59.236;18.142;2023-02-28T04:05:46;102084.56;;;-1.01;100.00
18987;BME280;9627;59.236;18.142;2023-02-28T04:08:16;102086.09;;;-0.97;100.00
18987;BME280;9627;59.236;18.142;2023-02-28T04:10:45;102069.78;;;-1.00;100.00
18987;BME280;9627;59.236;18.142;2023-02-28T04:13:15;102071.31;;;-0.96;100.00
18987;BME280;9627;59.236;18.142;2023-02-28T04:15:42;102072.97;;;-0.95;100.00
18987;BME280;9627;59.236;18.142;2023-02-28T04:18:09;102069.09;;;-1.04;100.00
18987;BME280;9627;59.236;18.142;2023-02-28T04:20:36;102075.28;;;-1.06;100.00
18987;BME280;9627;59.236;18.142;2023-02-28T04:23:03;102074.78;;;-1.13;100.00
18987;BME280;9627;59.236;18.142;2023-02-28T04:25:30;102072.56;;;-1.20;100.00
18987;BME280;9627;59.236;18.142;2023-02-28T04:27:59;102079.72;;;-1.25;100.00
18987;BME280;9627;59.236;18.142;2023-02-28T04:30:26;102072.91;;;-1.28;100.00
18987;BME280;9627;59.236;18.142;2023-02-28T04:32:54;102074.22;;;-1.36;100.00
18987;BME280;9627;59.236;18.142;2023-02-28T04:35:21;102066.69;;;-1.42;100.00
18987;BME280;9627;59.236;18.142;2023-02-28T04:37:48;102064.19;;;-1.44;100.00
18987;BME280;9627;59.236;18.142;2023-02-28T04:40:15;102066.41;;;-1.36;100.00
18987;BME280;9627;59.236;18.142;2023-02-28T04:42:42;102059.72;;;-1.42;100.00
18987;BME280;9627;59.236;18.142;2023-02-28T04:45:11;102060.81;;;-1.46;100.00
18987;BME280;9627;59.236;18.142;2023-02-28T04:47:38;102055.50;;;-1.44;100.00
18987;BME280;9627;59.236;18.142;2023-02-28T04:50:05;102061.56;;;-1.44;100.00
18987;BME280;9627;59.236;18.142;2023-02-28T04:52:32;102065.03;;;-1.43;100.00
18987;BME280;9627;59.236;18.142;2023-02-28T04:54:59;102069.31;;;-1.42;100.00
18987;BME280;9627;59.236;18.142;2023-02-28T04:57:26;102072.06;;;-1.45;100.00
18987;BME280;9627;59.236;18.142;2023-02-28T04:59:55;102079.25;;;-1.50;100.00
18987;BME280;9627;59.236;18.142;2023-02-28T05:02:23;102086.25;;;-1.51;100.00
18987;BME280;9627;59.236;18.142;2023-02-28T05:04:50;102086.25;;;-1.51;100.00
18987;BME280;9627;59.236;18.142;2023-02-28T05:07:17;102078.47;;;-1.52;100.00
18987;BME280;9627;59.236;18.142;2023-02-28T05:09:44;102080.09;;;-1.50;100.00
18987;BME280;9627;59.236;18.142;2023-02-28T05:12:11;102089.38;;;-1.44;100.00
18987;BME280;9627;59.236;18.142;2023-02-28T05:14:38;102088.38;;;-1.42;100.00
18987;BME280;9627;59.236;18.142;2023-02-28T05:17:05;102081.56;;;-1.44;100.00
18987;BME280;9627;59.236;18.142;2023-02-28T05:19:34;102090.06;;;-1.41;100.00
18987;BME280;9627;59.236;18.142;2023-02-28T05:22:01;102085.88;;;-1.43;100.00
18987;BME280;9627;59.236;18.142;2023-02-28T05:24:28;102087.06;;;-1.50;100.00
18987;BME280;9627;59.236;18.142;2023-02-28T05:26:55;102094.09;;;-1.52;100.00
18987;BME280;9627;59.236;18.142;2023-02-28T05:29:22;102090.50;;;-1.50;100.00
18987;BME280;9627;59.236;18.142;2023-02-28T05:31:49;102101.34;;;-1.40;100.00
18987;BME280;9627;59.236;18.142;2023-02-28T05:34:16;102086.25;;;-1.34;100.00
18987;BME280;9627;59.236;18.142;2023-02-28T05:36:44;102090.31;;;-1.28;100.00
18987;BME280;9627;59.236;18.142;2023-02-28T05:39:11;102096.44;;;-1.29;100.00
18987;BME280;9627;59.236;18.142;2023-02-28T05:41:39;102102.66;;;-1.32;100.00
18987;BME280;9627;59.236;18.142;2023-02-28T05:44:07;102106.84;;;-1.29;100.00
18987;BME280;9627;59.236;18.142;2023-02-28T05:46:33;102098.75;;;-1.23;100.00
18987;BME280;9627;59.236;18.142;2023-02-28T05:49:00;102102.88;;;-1.19;100.00
18987;BME280;9627;59.236;18.142;2023-02-28T05:51:28;102108.69;;;-1.14;100.00
18987;BME280;9627;59.236;18.142;2023-02-28T05:53:59;102112.06;;;-1.12;100.00
18987;BME280;9627;59.236;18.142;2023-02-28T05:56:27;102102.97;;;-1.04;100.00
18987;BME280;9627;59.236;18.142;2023-02-28T05:58:54;102105.97;;;-0.94;100.00
18987;BME280;9627;59.236;18.142;2023-02-28T06:01:33;102108.56;;;-0.77;100.00
18987;BME280;9627;59.236;18.142;2023-02-28T06:04:00;102116.19;;;-0.57;100.00
18987;BME280;9627;59.236;18.142;2023-02-28T06:06:28;102105.66;;;-0.23;100.00
18987;BME280;9627;59.236;18.142;2023-02-28T06:08:56;102122.97;;;0.27;100.00
18987;BME280;9627;59.236;18.142;2023-02-28T06:11:24;102122.69;;;0.92;100.00
18987;BME280;9627;59.236;18.142;2023-02-28T06:13:53;102122.59;;;1.51;100.00
18987;BME280;9627;59.236;18.142;2023-02-28T06:16:20;102115.28;;;1.99;100.00
18987;BME280;9627;59.236;18.142;2023-02-28T06:18:47;102133.31;;;2.58;100.00
18987;BME280;9627;59.236;18.142;2023-02-28T06:21:14;102131.47;;;2.99;100.00
18987;BME280;9627;59.236;18.142;2023-02-28T06:23:41;102135.34;;;3.06;100.00
18987;BME280;9627;59.236;18.142;2023-02-28T06:26:09;102129.31;;;3.56;100.00
18987;BME280;9627;59.236;18.142;2023-02-28T06:28:37;102121.63;;;3.91;100.00
18987;BME280;9627;59.236;18.142;2023-02-28T06:31:07;102128.03;;;4.59;100.00
18987;BME280;9627;59.236;18.142;2023-02-28T06:33:34;102132.06;;;5.10;100.00
18987;BME280;9627;59.236;18.142;2023-02-28T06:36:02;102126.19;;;5.75;100.00
18987;BME280;9627;59.236;18.142;2023-02-28T06:38:29;102114.47;;;6.01;100.00
18987;BME280;9627;59.236;18.142;2023-02-28T06:40:56;102119.84;;;6.21;100.00
18987;BME280;9627;59.236;18.142;2023-02-28T06:43:23;102128.25;;;6.15;100.00
18987;BME280;9627;59.236;18.142;2023-02-28T06:45:55;102125.63;;;6.04;100.00
18987;BME280;9627;59.236;18.142;2023-02-28T06:48:23;102128.44;;;6.77;100.00
18987;BME280;9627;59.236;18.142;2023-02-28T06:50:49;102137.09;;;6.68;100.00
18987;BME280;9627;59.236;18.142;2023-02-28T06:53:16;102142.28;;;7.22;100.00
18987;BME280;9627;59.236;18.142;2023-02-28T06:55:43;102136.84;;;7.95;100.00
18987;BME280;9627;59.236;18.142;2023-02-28T06:58:10;102143.97;;;8.34;100.00
18987;BME280;9627;59.236;18.142;2023-02-28T07:00:44;102162.50;;;8.04;100.00
18987;BME280;9627;59.236;18.142;2023-02-28T07:03:13;102147.38;;;8.15;100.00
18987;BME280;9627;59.236;18.142;2023-02-28T07:05:40;102146.81;;;8.71;100.00
18987;BME280;9627;59.236;18.142;2023-02-28T07:08:07;102153.53;;;9.03;100.00
18987;BME280;9627;59.236;18.142;2023-02-28T07:10:36;102151.56;;;9.15;100.00
18987;BME280;9627;59.236;18.142;2023-02-28T07:13:04;102163.13;;;9.14;100.00
18987;BME280;9627;59.236;18.142;2023-02-28T07:15:31;102150.31;;;8.81;100.00
18987;BME280;9627;59.236;18.142;2023-02-28T07:17:58;102153.78;;;8.72;100.00
18987;BME280;9627;59.236;18.142;2023-02-28T07:20:26;102156.03;;;8.76;100.00
18987;BME280;9627;59.236;18.142;2023-02-28T07:22:53;102168.03;;;9.28;100.00
18987;BME280;9627;59.236;18.142;2023-02-28T07:25:22;102162.41;;;9.41;100.00
18987;BME280;9627;59.236;18.142;2023-02-28T07:27:49;102166.81;;;9.69;100.00
18987;BME280;9627;59.236;18.142;2023-02-28T07:30:16;102167.13;;;9.66;100.00
18987;BME280;9627;59.236;18.142;2023-02-28T07:32:43;102166.06;;;9.20;100.00
18987;BME280;9627;59.236;18.142;2023-02-28T07:35:10;102165.84;;;9.70;100.00
18987;BME280;9627;59.236;18.142;2023-02-28T07:37:38;102160.41;;;9.62;100.00
18987;BME280;9627;59.236;18.142;2023-02-28T07:40:08;102178.34;;;9.21;100.00
18987;BME280;9627;59.236;18.142;2023-02-28T07:42:37;102164.03;;;9.70;100.00
18987;BME280;9627;59.236;18.142;2023-02-28T07:45:04;102170.47;;;9.58;100.00
18987;BME280;9627;59.236;18.142;2023-02-28T07:47:31;102170.38;;;8.74;100.00
18987;BME280;9627;59.236;18.142;2023-02-28T07:49:59;102170.06;;;8.48;100.00
18987;BME280;9627;59.236;18.142;2023-02-28T07:52:26;102159.06;;;8.72;100.00
18987;BME280;9627;59.236;18.142;2023-02-28T07:54:54;102163.72;;;8.30;100.00
18987;BME280;9627;59.236;18.142;2023-02-28T07:57:21;102166.84;;;8.14;100.00
18987;BME280;9627;59.236;18.142;2023-02-28T07:59:48;102163.53;;;8.52;100.00
18987;BME280;9627;59.236;18.142;2023-02-28T08:02:16;102158.94;;;8.83;100.00
18987;BME280;9627;59.236;18.142;2023-02-28T08:04:43;102154.31;;;9.32;100.00
18987;BME280;9627;59.236;18.142;2023-02-28T08:07:12;102162.28;;;9.23;100.00
18987;BME280;9627;59.236;18.142;2023-02-28T08:09:39;102162.03;;;8.97;100.00
18987;BME280;9627;59.236;18.142;2023-02-28T08:12:08;102155.31;;;9.41;100.00
18987;BME280;9627;59.236;18.142;2023-02-28T08:14:35;102158.31;;;10.11;100.00
18987;BME280;9627;59.236;18.142;2023-02-28T08:17:02;102160.47;;;10.53;100.00
18987;BME280;9627;59.236;18.142;2023-02-28T08:19:29;102168.06;;;10.48;100.00
18987;BME280;9627;59.236;18.142;2023-02-28T08:21:56;102169.22;;;10.36;100.00
18987;BME280;9627;59.236;18.142;2023-02-28T08:24:23;102194.06;;;10.07;100.00
18987;BME280;9627;59.236;18.142;2023-02-28T08:26:50;102202.34;;;10.32;100.00
18987;BME280;9627;59.236;18.142;2023-02-28T08:29:19;102206.25;;;10.64;100.00
18987;BME280;9627;59.236;18.142;2023-02-28T08:31:46;102214.00;;;10.21;100.00
18987;BME280;9627;59.236;18.142;2023-02-28T08:34:14;102210.69;;;10.09;100.00
18987;BME280;9627;59.236;18.142;2023-02-28T08:36:41;102210.47;;;9.84;100.00
18987;BME280;9627;59.236;18.142;2023-02-28T08:39:09;102208.97;;;9.72;100.00
18987;BME280;9627;59.236;18.142;2023-02-28T08:41:36;102221.66;;;9.78;100.00
18987;BME280;9627;59.236;18.142;2023-02-28T08:44:04;102213.53;;;10.35;100.00
18987;BME280;9627;59.236;18.142;2023-02-28T08:46:32;102212.84;;;10.33;100.00
18987;BME280;9627;59.236;18.142;2023-02-28T08:48:59;102211.66;;;10.72;100.00
18987;BME280;9627;59.236;18.142;2023-02-28T08:51:27;102206.19;;;10.74;100.00
18987;BME280;9627;59.236;18.142;2023-02-28T08:53:54;102210.31;;;10.59;100.00
18987;BME280;9627;59.236;18.142;2023-02-28T08:56:21;102202.97;;;10.25;100.00
18987;BME280;9627;59.236;18.142;2023-02-28T08:58:49;102196.16;;;9.58;100.00
18987;BME280;9627;59.236;18.142;2023-02-28T09:01:16;102199.50;;;9.60;100.00
18987;BME280;9627;59.236;18.142;2023-02-28T09:03:46;102197.13;;;9.57;100.00
18987;BME280;9627;59.236;18.142;2023-02-28T09:06:13;102198.97;;;8.99;100.00
18987;BME280;9627;59.236;18.142;2023-02-28T09:08:41;102197.59;;;9.14;100.00
18987;BME280;9627;59.236;18.142;2023-02-28T09:11:08;102190.63;;;9.03;100.00
18987;BME280;9627;59.236;18.142;2023-02-28T09:13:35;102187.38;;;9.38;100.00
18987;BME280;9627;59.236;18.142;2023-02-28T09:16:03;102185.31;;;10.34;100.00
18987;BME280;9627;59.236;18.142;2023-02-28T09:18:30;102190.13;;;11.54;100.00
18987;BME280;9627;59.236;18.142;2023-02-28T09:20:58;102191.50;;;12.09;100.00
18987;BME280;9627;59.236;18.142;2023-02-28T09:23:25;102182.13;;;12.31;100.00
18987;BME280;9627;59.236;18.142;2023-02-28T09:25:53;102179.56;;;12.55;100.00
18987;BME280;9627;59.236;18.142;2023-02-28T09:28:20;102163.56;;;12.47;100.00
18987;BME280;9627;59.236;18.142;2023-02-28T09:30:49;102162.03;;;13.02;100.00
18987;BME280;9627;59.236;18.142;2023-02-28T09:33:16;102173.16;;;12.89;100.00
18987;BME280;9627;59.236;18.142;2023-02-28T09:35:45;102160.16;;;12.86;100.00
18987;BME280;9627;59.236;18.142;2023-02-28T09:38:14;102164.63;;;12.62;100.00
18987;BME280;9627;59.236;18.142;2023-02-28T09:40:45;102160.63;;;12.74;100.00
18987;BME280;9627;59.236;18.142;2023-02-28T09:43:12;102158.53;;;13.42;100.00
18987;BME280;9627;59.236;18.142;2023-02-28T09:45:43;102163.31;;;12.90;100.00
18987;BME280;9627;59.236;18.142;2023-02-28T09:48:14;102162.81;;;13.02;100.00
18987;BME280;9627;59.236;18.142;2023-02-28T09:50:43;102160.88;;;13.13;100.00
18987;BME280;9627;59.236;18.142;2023-02-28T09:53:15;102154.84;;;12.86;100.00
18987;BME280;9627;59.236;18.142;2023-02-28T09:55:47;102145.44;;;12.50;100.00
18987;BME280;9627;59.236;18.142;2023-02-28T09:58:15;102151.09;;;12.55;100.00
18987;BME280;9627;59.236;18.142;2023-02-28T10:00:44;102159.03;;;12.31;100.00
18987;BME280;9627;59.236;18.142;2023-02-28T10:03:21;102160.13;;;12.70;100.00
18987;BME280;9627;59.236;18.142;2023-02-28T10:05:52;102159.13;;;12.63;100.00
18987;BME280;9627;59.236;18.142;2023-02-28T10:08:23;102155.00;;;12.27;100.00
18987;BME280;9627;59.236;18.142;2023-02-28T10:10:53;102158.97;;;11.64;100.00
18987;BME280;9627;59.236;18.142;2023-02-28T10:13:23;102161.28;;;11.84;100.00
18987;BME280;9627;59.236;18.142;2023-02-28T10:15:51;102168.41;;;11.58;100.00
18987;BME280;9627;59.236;18.142;2023-02-28T10:18:21;102167.72;;;11.31;100.00
18987;BME280;9627;59.236;18.142;2023-02-28T10:20:49;102168.56;;;10.96;100.00
18987;BME280;9627;59.236;18.142;2023-02-28T10:23:19;102183.41;;;10.89;100.00
18987;BME280;9627;59.236;18.142;2023-02-28T10:25:50;102184.69;;;11.55;100.00
18987;BME280;9627;59.236;18.142;2023-02-28T10:28:19;102187.53;;;11.18;100.00
18987;BME280;9627;59.236;18.142;2023-02-28T10:30:47;102191.84;;;11.19;100.00
18987;BME280;9627;59.236;18.142;2023-02-28T10:33:17;102183.03;;;11.37;100.00
18987;BME280;9627;59.236;18.142;2023-02-28T10:35:45;102189.06;;;11.03;100.00
18987;BME280;9627;59.236;18.142;2023-02-28T10:38:14;102183.28;;;10.73;100.00
18987;BME280;9627;59.236;18.142;2023-02-28T10:40:42;102189.81;;;10.24;100.00
18987;BME280;9627;59.236;18.142;2023-02-28T10:43:19;102174.44;;;9.91;100.00
18987;BME280;9627;59.236;18.142;2023-02-28T10:45:55;102174.81;;;9.96;100.00
18987;BME280;9627;59.236;18.142;2023-02-28T10:48:26;102175.25;;;9.35;100.00
18987;BME280;9627;59.236;18.142;2023-02-28T10:50:54;102167.31;;;9.35;100.00
18987;BME280;9627;59.236;18.142;2023-02-28T10:53:25;102156.88;;;9.24;100.00
18987;BME280;9627;59.236;18.142;2023-02-28T10:55:57;102172.47;;;9.08;100.00
18987;BME280;9627;59.236;18.142;2023-02-28T10:58:28;102173.28;;;9.57;100.00
18987;BME280;9627;59.236;18.142;2023-02-28T11:00:55;102159.88;;;9.58;100.00
18987;BME280;9627;59.236;18.142;2023-02-28T11:03:24;102166.97;;;9.67;100.00
18987;BME280;9627;59.236;18.142;2023-02-28T11:05:51;102168.50;;;9.70;100.00
18987;BME280;9627;59.236;18.142;2023-02-28T11:08:18;102170.78;;;9.92;100.00
18987;BME280;9627;59.236;18.142;2023-02-28T11:10:46;102171.44;;;10.03;100.00
18987;BME280;9627;59.236;18.142;2023-02-28T11:13:16;102181.00;;;9.87;100.00
18987;BME280;9627;59.236;18.142;2023-02-28T11:15:50;102183.16;;;10.20;100.00
18987;BME280;9627;59.236;18.142;2023-02-28T11:18:24;102176.50;;;9.97;100.00
18987;BME280;9627;59.236;18.142;2023-02-28T11:20:54;102170.97;;;9.81;100.00
18987;BME280;9627;59.236;18.142;2023-02-28T11:23:22;102166.31;;;9.92;100.00
18987;BME280;9627;59.236;18.142;2023-02-28T11:25:53;102172.31;;;9.94;100.00
18987;BME280;9627;59.236;18.142;2023-02-28T11:28:26;102166.25;;;10.21;100.00
18987;BME280;9627;59.236;18.142;2023-02-28T11:33:42;102176.22;;;10.09;100.00
18987;BME280;9627;59.236;18.142;2023-02-28T11:36:11;102176.91;;;10.11;100.00
18987;BME280;9627;59.236;18.142;2023-02-28T11:38:38;102173.84;;;10.61;100.00
18987;BME280;9627;59.236;18.142;2023-02-28T11:41:09;102175.59;;;10.25;100.00
18987;BME280;9627;59.236;18.142;2023-02-28T11:43:45;102172.47;;;10.57;100.00
18987;BME280;9627;59.236;18.142;2023-02-28T11:46:20;102165.88;;;10.34;100.00
18987;BME280;9627;59.236;18.142;2023-02-28T11:48:55;102169.69;;;10.31;100.00
18987;BME280;9627;59.236;18.142;2023-02-28T11:51:27;102167.38;;;10.46;100.00
18987;BME280;9627;59.236;18.142;2023-02-28T11:54:00;102169.31;;;10.16;100.00
18987;BME280;9627;59.236;18.142;2023-02-28T11:56:31;102160.81;;;10.13;100.00
18987;BME280;9627;59.236;18.142;2023-02-28T11:59:02;102148.56;;;10.02;100.00
18987;BME280;9627;59.236;18.142;2023-02-28T12:01:34;102145.91;;;9.66;100.00
18987;BME280;9627;59.236;18.142;2023-02-28T12:04:12;102134.09;;;9.41;100.00
18987;BME280;9627;59.236;18.142;2023-02-28T12:06:44;102127.59;;;9.16;100.00
18987;BME280;9627;59.236;18.142;2023-02-28T12:09:23;102122.44;;;8.77;100.00
18987;BME280;9627;59.236;18.142;2023-02-28T12:11:56;102130.38;;;8.58;100.00
18987;BME280;9627;59.236;18.142;2023-02-28T12:17:12;102131.03;;;8.40;100.00
18987;BME280;9627;59.236;18.142;2023-02-28T12:19:45;102133.94;;;8.37;100.00
18987;BME280;9627;59.236;18.142;2023-02-28T12:22:20;102129.03;;;8.23;100.00
18987;BME280;9627;59.236;18.142;2023-02-28T12:24:55;102132.03;;;8.09;100.00
18987;BME280;9627;59.236;18.142;2023-02-28T12:27:27;102125.19;;;8.47;100.00
18987;BME280;9627;59.236;18.142;2023-02-28T12:29:56;102135.50;;;8.40;100.00
18987;BME280;9627;59.236;18.142;2023-02-28T12:32:26;102130.19;;;8.40;100.00
18987;BME280;9627;59.236;18.142;2023-02-28T12:34:56;102120.59;;;8.58;100.00
18987;BME280;9627;59.236;18.142;2023-02-28T12:37:25;102133.44;;;8.82;100.00
18987;BME280;9627;59.236;18.142;2023-02-28T12:39:55;102125.91;;;8.77;100.00
18987;BME280;9627;59.236;18.142;2023-02-28T12:42:31;102121.19;;;8.71;100.00
18987;BME280;9627;59.236;18.142;2023-02-28T12:45:01;102117.41;;;8.83;100.00
18987;BME280;9627;59.236;18.142;2023-02-28T12:47:28;102107.78;;;8.54;100.00
18987;BME280;9627;59.236;18.142;2023-02-28T12:49:58;102112.34;;;8.32;100.00
18987;BME280;9627;59.236;18.142;2023-02-28T12:52:28;102118.78;;;8.49;100.00
18987;BME280;9627;59.236;18.142;2023-02-28T12:54:59;102131.34;;;8.66;100.00
18987;BME280;9627;59.236;18.142;2023-02-28T12:57:32;102135.13;;;8.73;100.00
18987;BME280;9627;59.236;18.142;2023-02-28T13:00:02;102135.59;;;8.29;100.00
18987;BME280;9627;59.236;18.142;2023-02-28T13:02:50;102136.31;;;8.31;100.00
18987;BME280;9627;59.236;18.142;2023-02-28T13:05:27;102120.44;;;8.01;100.00
18987;BME280;9627;59.236;18.142;2023-02-28T13:10:42;102134.28;;;7.84;100.00